Time;durP1;ratioP1;P1;durP2;ratioP2;P2;SDS_P1;SDS_P2;PMS_P1;PMS_P2;Temp;Humidity;BMP_temperature;BMP_pressure;BME280_temperature;BME280_humidity;BME280_pressure;Samples;Min_cycle;Max_cycle;Signal;HPM_P1;HPM_P2
2023/10/18 00:01:02;;;;;;;14.40;7.75;;;;;;;6.45;100.00;101433.69;5040981;28;20479;-74
2023/10/18 00:03:29;;;;;;;19.60;10.43;;;;;;;6.37;100.00;101440.16;5043411;28;20619;-74
2023/10/18 00:05:55;;;;;;;17.92;9.10;;;;;;;6.24;100.00;101434.47;5046484;28;20113;-74
2023/10/18 00:08:22;;;;;;;15.35;8.75;;;;;;;6.25;100.00;101433.31;5040957;28;20104;-74
2023/10/18 00:10:49;;;;;;;16.05;9.77;;;;;;;6.22;100.00;101431.22;5028433;28;20486;-74
2023/10/18 00:13:15;;;;;;;22.00;9.27;;;;;;;6.51;100.00;101426.78;5027815;28;20108;-74
2023/10/18 00:15:40;;;;;;;17.25;9.30;;;;;;;6.46;100.00;101419.47;5042239;28;20506;-75
2023/10/18 00:18:05;;;;;;;22.00;10.18;;;;;;;6.45;100.00;101419.78;5043109;28;20091;-74
2023/10/18 00:20:31;;;;;;;16.70;10.30;;;;;;;6.36;100.00;101421.81;5044890;28;20016;-74
2023/10/18 00:22:57;;;;;;;18.83;9.77;;;;;;;6.53;100.00;101421.69;5042799;28;20021;-74
2023/10/18 00:25:23;;;;;;;12.75;8.48;;;;;;;6.45;100.00;101408.66;5043549;28;20052;-74
2023/10/18 00:27:48;;;;;;;18.52;9.65;;;;;;;6.40;100.00;101411.66;5044150;28;20040;-74
2023/10/18 00:30:17;;;;;;;14.00;7.97;;;;;;;6.24;100.00;101403.91;5046498;28;20122;-74
2023/10/18 00:32:43;;;;;;;15.98;8.30;;;;;;;6.35;100.00;101390.44;5031270;28;20033;-74
2023/10/18 00:35:16;;;;;;;15.40;9.13;;;;;;;5.93;100.00;101387.50;5041871;28;20047;-74
2023/10/18 00:37:42;;;;;;;17.17;9.73;;;;;;;5.93;100.00;101381.94;5024935;28;20021;-74
2023/10/18 00:40:19;;;;;;;17.80;9.23;;;;;;;5.89;100.00;101387.34;5044281;28;20528;-75
2023/10/18 00:42:44;;;;;;;15.63;8.90;;;;;;;6.00;100.00;101389.78;5038309;28;20111;-74
2023/10/18 00:45:10;;;;;;;19.92;10.15;;;;;;;6.11;100.00;101388.25;5040461;28;20782;-74
2023/10/18 00:47:36;;;;;;;17.60;9.60;;;;;;;6.08;100.00;101394.50;5041330;28;20039;-74
2023/10/18 00:50:02;;;;;;;16.90;9.05;;;;;;;5.97;100.00;101384.91;5019569;28;20482;-74
2023/10/18 00:52:30;;;;;;;16.63;9.00;;;;;;;6.12;100.00;101395.47;5042721;28;20033;-74
2023/10/18 00:54:55;;;;;;;17.27;8.73;;;;;;;6.05;100.00;101384.03;5020923;28;20031;-74
2023/10/18 00:57:22;;;;;;;18.02;10.18;;;;;;;6.21;100.00;101387.88;5018359;28;20018;-73
2023/10/18 00:59:49;;;;;;;20.70;11.15;;;;;;;5.97;100.00;101384.91;5039242;28;20449;-73
2023/10/18 01:02:19;;;;;;;18.08;9.68;;;;;;;6.17;100.00;101384.13;5042098;28;20037;-74
2023/10/18 01:04:46;;;;;;;17.90;9.63;;;;;;;6.06;100.00;101380.13;5043969;28;20037;-73
2023/10/18 01:07:13;;;;;;;21.13;10.55;;;;;;;6.11;100.00;101382.69;5040259;28;20515;-73
2023/10/18 01:09:48;;;;;;;17.70;10.55;;;;;;;6.29;100.00;101378.69;5044977;28;20102;-73
2023/10/18 01:12:15;;;;;;;18.30;10.23;;;;;;;6.16;100.00;101379.75;5025463;28;20021;-73
2023/10/18 01:14:41;;;;;;;22.77;11.75;;;;;;;6.24;100.00;101372.47;5043942;28;20025;-73
2023/10/18 01:17:07;;;;;;;20.08;9.32;;;;;;;6.33;100.00;101369.69;5039585;28;20067;-73
2023/10/18 01:19:33;;;;;;;20.15;11.07;;;;;;;6.26;100.00;101373.81;5042255;28;20029;-73
2023/10/18 01:21:58;;;;;;;17.02;10.25;;;;;;;6.39;100.00;101371.91;5040124;28;20124;-73
2023/10/18 01:24:29;;;;;;;20.50;10.95;;;;;;;6.50;100.00;101350.88;5027746;28;20451;-73
2023/10/18 01:26:55;;;;;;;18.58;10.70;;;;;;;6.20;100.00;101358.47;5032263;28;20029;-73
2023/10/18 01:29:21;;;;;;;19.80;10.20;;;;;;;6.46;100.00;101363.03;5040379;28;20040;-73
2023/10/18 01:31:48;;;;;;;20.27;10.63;;;;;;;6.44;100.00;101362.56;5042875;28;20441;-73
2023/10/18 01:34:14;;;;;;;24.55;11.82;;;;;;;6.05;100.00;101364.59;5040571;28;20528;-73
2023/10/18 01:36:40;;;;;;;23.50;10.65;;;;;;;6.33;100.00;101355.78;5040283;28;20068;-73
2023/10/18 01:39:18;;;;;;;26.00;11.98;;;;;;;6.50;100.00;101350.09;5039985;28;20064;-74
2023/10/18 01:41:43;;;;;;;19.65;11.00;;;;;;;6.26;100.00;101348.78;5041352;28;20094;-73
2023/10/18 01:44:10;;;;;;;22.77;11.48;;;;;;;6.14;100.00;101348.69;5039571;28;20033;-73
2023/10/18 01:46:44;;;;;;;22.77;12.25;;;;;;;5.90;100.00;101339.00;5039039;28;20541;-73
2023/10/18 01:49:13;;;;;;;27.92;13.15;;;;;;;6.03;100.00;101337.16;5041462;28;20414;-73
2023/10/18 01:51:42;;;;;;;22.50;12.95;;;;;;;5.93;100.00;101326.38;5022376;28;20381;-74
2023/10/18 01:54:12;;;;;;;25.67;14.30;;;;;;;5.95;100.00;101331.66;5044747;28;20017;-73
2023/10/18 01:56:38;;;;;;;21.45;11.45;;;;;;;5.97;100.00;101324.59;5042108;28;20078;-73
2023/10/18 01:59:14;;;;;;;25.67;13.30;;;;;;;5.81;100.00;101318.75;5046696;28;20029;-73
2023/10/18 02:01:40;;;;;;;25.75;14.60;;;;;;;5.74;100.00;101317.66;5037754;28;20116;-72
2023/10/18 02:04:11;;;;;;;26.13;13.73;;;;;;;5.81;100.00;101323.50;5043974;28;20037;-72
2023/10/18 02:06:37;;;;;;;25.15;12.60;;;;;;;5.99;100.00;101322.28;5044408;28;20064;-74
2023/10/18 02:09:09;;;;;;;25.77;13.68;;;;;;;5.73;100.00;101311.28;5020112;28;20030;-74
2023/10/18 02:11:35;;;;;;;28.75;14.43;;;;;;;5.80;100.00;101317.13;5044456;28;20024;-74
2023/10/18 02:14:02;;;;;;;28.08;15.05;;;;;;;5.68;100.00;101311.47;5041198;28;20041;-74
2023/10/18 02:16:28;;;;;;;26.70;13.35;;;;;;;5.87;100.00;101311.06;5024849;28;20016;-74
2023/10/18 02:18:54;;;;;;;27.27;13.52;;;;;;;5.93;100.00;101308.91;5048055;28;20106;-74
2023/10/18 02:21:21;;;;;;;28.10;12.88;;;;;;;6.12;100.00;101312.06;5040791;28;20029;-75
2023/10/18 02:23:50;;;;;;;28.55;13.65;;;;;;;5.99;100.00;101308.41;5043534;28;20040;-74
2023/10/18 02:26:30;;;;;;;24.55;12.95;;;;;;;6.04;100.00;101305.41;5048505;28;20036;-74
2023/10/18 02:29:19;;;;;;;22.38;13.30;;;;;;;5.82;100.00;101308.44;5048031;28;20048;-74
2023/10/18 02:31:44;;;;;;;27.35;14.85;;;;;;;5.86;100.00;101309.41;5041589;28;20048;-74
2023/10/18 02:34:14;;;;;;;27.25;13.75;;;;;;;6.01;100.00;101306.09;5050843;28;20040;-74
2023/10/18 02:36:40;;;;;;;25.30;13.35;;;;;;;5.94;100.00;101299.41;5046877;28;20074;-74
2023/10/18 02:39:09;;;;;;;31.17;15.25;;;;;;;5.98;100.00;101295.63;5023138;28;20033;-74
2023/10/18 02:41:37;;;;;;;26.77;14.20;;;;;;;6.04;100.00;101287.94;5047311;28;20053;-74
2023/10/18 02:44:07;;;;;;;30.55;14.20;;;;;;;6.00;100.00;101292.53;5032039;28;20039;-74
2023/10/18 02:46:33;;;;;;;28.00;14.15;;;;;;;5.86;100.00;101287.19;5042140;28;20028;-74
2023/10/18 02:49:00;;;;;;;28.85;14.27;;;;;;;6.06;100.00;101299.53;5045222;28;20634;-74
2023/10/18 02:51:28;;;;;;;29.92;14.63;;;;;;;5.98;100.00;101292.06;5023151;28;20021;-74
2023/10/18 02:56:50;;;;;;;26.80;13.90;;;;;;;6.23;100.00;101285.50;5045037;28;20037;-74
2023/10/18 02:59:25;;;;;;;26.80;14.35;;;;;;;6.26;100.00;101284.84;5041677;28;20512;-74
2023/10/18 03:01:57;;;;;;;27.13;14.00;;;;;;;6.21;100.00;101285.03;5039179;28;20102;-76
2023/10/18 03:04:24;;;;;;;32.63;15.48;;;;;;;6.03;100.00;101269.63;5018484;28;20025;-76
2023/10/18 03:06:52;;;;;;;27.67;14.55;;;;;;;6.01;100.00;101269.97;5043285;28;20041;-75
2023/10/18 03:09:38;;;;;;;25.63;13.27;;;;;;;6.09;100.00;101259.94;5043080;28;20029;-75
2023/10/18 03:12:06;;;;;;;24.27;13.27;;;;;;;6.11;100.00;101249.28;5038586;28;20022;-75
2023/10/18 03:14:54;;;;;;;25.13;14.80;;;;;;;6.00;100.00;101256.41;5038945;28;20021;-75
2023/10/18 03:17:23;;;;;;;30.70;14.43;;;;;;;6.14;100.00;101254.19;5041044;28;20095;-76
2023/10/18 03:19:56;;;;;;;27.58;14.18;;;;;;;6.04;100.00;101260.16;5039503;28;20091;-76
2023/10/18 03:22:23;;;;;;;31.52;14.75;;;;;;;6.01;100.00;101249.69;5041680;28;20047;-76
2023/10/18 03:24:55;;;;;;;28.23;14.10;;;;;;;6.04;100.00;101251.81;5049236;28;20454;-76
2023/10/18 03:28:13;;;;;;;;;;;;;;;6.14;100.00;101247.81;5036030;28;20037;-74
2023/10/18 03:30:54;;;;;;;30.33;12.55;;;;;;;5.84;100.00;101243.09;5029970;28;20128;-76
2023/10/18 03:33:00;;;;;;;26.77;12.98;;;;;;;5.98;100.00;101237.28;5034396;28;20051;-77
2023/10/18 03:35:26;;;;;;;25.27;13.88;;;;;;;5.88;100.00;101229.31;5046352;28;20078;-76
2023/10/18 03:37:56;;;;;;;28.45;15.23;;;;;;;5.86;100.00;101226.91;5040212;28;20028;-76
2023/10/18 03:40:26;;;;;;;30.02;15.30;;;;;;;5.87;100.00;101222.94;5045875;28;20532;-75
2023/10/18 03:42:53;;;;;;;32.00;16.50;;;;;;;5.77;100.00;101220.56;5026360;28;20029;-76
2023/10/18 03:45:22;;;;;;;30.00;15.25;;;;;;;6.03;100.00;101222.38;5040675;28;20040;-76
2023/10/18 03:47:57;;;;;;;27.98;13.77;;;;;;;6.26;100.00;101217.28;5043784;28;20025;-76
2023/10/18 03:50:37;;;;;;;33.63;15.88;;;;;;;6.04;100.00;101218.47;5037256;28;20379;-76
2023/10/18 03:53:02;;;;;;;25.95;13.02;;;;;;;5.90;100.00;101205.63;5048103;28;20385;-77
2023/10/18 03:55:37;;;;;;;26.42;14.40;;;;;;;5.99;100.00;101210.34;5050111;28;20127;-76
2023/10/18 03:58:04;;;;;;;30.65;14.85;;;;;;;5.88;100.00;101207.94;5047410;28;20553;-76
2023/10/18 04:00:37;;;;;;;25.42;13.63;;;;;;;5.70;100.00;101193.31;5046268;28;20029;-76
2023/10/18 04:03:08;;;;;;;28.50;15.48;;;;;;;5.95;100.00;101195.50;5042119;28;20103;-76
2023/10/18 04:05:45;;;;;;;25.90;13.68;;;;;;;5.58;100.00;101184.09;5035657;28;20033;-76
2023/10/18 04:08:17;;;;;;;30.80;16.40;;;;;;;5.60;100.00;101179.03;5043849;28;20033;-76
2023/10/18 04:10:44;;;;;;;31.10;15.30;;;;;;;5.61;100.00;101181.47;5044848;28;20016;-75
2023/10/18 04:13:17;;;;;;;28.08;15.93;;;;;;;5.77;100.00;101178.91;5019299;28;20310;-75
2023/10/18 04:15:46;;;;;;;30.00;15.02;;;;;;;5.77;100.00;101184.47;5038277;28;20070;-75
2023/10/18 04:18:13;;;;;;;26.10;14.10;;;;;;;5.65;100.00;101179.66;5046810;28;20025;-75
2023/10/18 04:20:43;;;;;;;29.30;14.95;;;;;;;5.68;100.00;101180.94;5041979;28;20095;-75
2023/10/18 04:23:15;;;;;;;32.65;15.75;;;;;;;5.75;100.00;101170.09;5028754;28;20498;-77
2023/10/18 04:25:57;;;;;;;24.70;13.10;;;;;;;5.35;100.00;101167.72;5042031;28;20032;-71
2023/10/18 04:28:26;;;;;;;31.40;15.32;;;;;;;5.60;100.00;101167.91;5041877;28;20060;-74
2023/10/18 04:31:11;;;;;;;32.15;15.23;;;;;;;5.88;100.00;101157.91;5045019;28;20090;-73
2023/10/18 04:33:48;;;;;;;27.90;15.10;;;;;;;5.88;100.00;101155.13;5037068;28;20116;-73
2023/10/18 04:36:15;;;;;;;27.60;14.38;;;;;;;5.87;100.00;101155.47;5043452;28;20029;-73
2023/10/18 04:38:46;;;;;;;28.88;14.50;;;;;;;5.71;100.00;101135.81;5029324;28;20029;-72
2023/10/18 04:41:27;;;;;;;31.67;15.52;;;;;;;5.65;100.00;101137.16;5038025;28;20485;-72
2023/10/18 04:44:07;;;;;;;31.50;14.85;;;;;;;5.62;100.00;101133.09;5047006;28;20501;-72
2023/10/18 04:46:35;;;;;;;31.38;17.00;;;;;;;5.68;100.00;101126.19;5040026;28;20029;-72
2023/10/18 04:49:15;;;;;;;33.50;16.10;;;;;;;5.64;100.00;101107.78;5046107;28;20383;-74
2023/10/18 04:54:59;;;;;;;33.35;15.50;;;;;;;5.68;100.00;101103.16;5043103;28;20037;-73
2023/10/18 04:56:56;;;;;;;30.95;15.23;;;;;;;5.62;100.00;101104.53;5037754;28;20060;-73
2023/10/18 05:04:29;;;;;;;30.77;14.55;;;;;;;5.74;100.00;101099.03;5043724;28;20107;-73
2023/10/18 05:06:56;;;;;;;27.42;14.85;;;;;;;5.62;100.00;101094.22;5043810;28;20041;-72
2023/10/18 05:09:31;;;;;;;27.52;15.95;;;;;;;5.51;100.00;101093.00;5038287;28;20112;-72
2023/10/18 05:11:59;;;;;;;27.17;14.68;;;;;;;5.62;100.00;101090.63;5041282;28;20128;-72
2023/10/18 05:17:22;;;;;;;30.23;14.50;;;;;;;5.81;100.00;101085.41;4986963;28;20050;-72
2023/10/18 05:19:51;;;;;;;27.15;14.23;;;;;;;5.83;100.00;101080.31;5041179;28;20029;-72
2023/10/18 05:22:23;;;;;;;29.50;14.05;;;;;;;5.79;100.00;101084.94;5022931;28;20052;-72
2023/10/18 05:24:55;;;;;;;28.70;15.37;;;;;;;5.63;100.00;101078.38;5026541;28;20541;-72
2023/10/18 05:27:27;;;;;;;31.95;16.27;;;;;;;5.72;100.00;101076.34;5035248;28;20815;-73
2023/10/18 05:29:57;;;;;;;25.67;14.65;;;;;;;5.58;100.00;101070.25;5040200;28;20112;-72
2023/10/18 05:35:19;;;;;;;29.75;16.83;;;;;;;5.45;100.00;101064.63;5041846;28;20029;-72
2023/10/18 05:37:50;;;;;;;33.22;15.20;;;;;;;5.47;100.00;101061.53;5033817;28;20025;-73
2023/10/18 05:43:03;;;;;;;38.17;18.20;;;;;;;5.36;100.00;101052.78;5032632;28;20083;-73
2023/10/18 05:45:32;;;;;;;30.35;14.07;;;;;;;5.62;100.00;101057.31;5037180;28;20116;-71
2023/10/18 05:48:12;;;;;;;31.90;15.85;;;;;;;5.67;100.00;101059.88;5025993;28;20037;-72
2023/10/18 05:50:38;;;;;;;24.80;14.02;;;;;;;5.70;100.00;101045.31;5036220;28;20032;-73
2023/10/18 05:53:10;;;;;;;27.27;14.75;;;;;;;5.47;100.00;101053.19;5034523;28;20074;-73
2023/10/18 05:55:38;;;;;;;30.25;15.25;;;;;;;5.42;100.00;101059.78;5032784;28;20035;-72
2023/10/18 05:58:04;;;;;;;29.20;16.30;;;;;;;5.57;100.00;101051.97;5042065;28;20501;-71
2023/10/18 06:00:33;;;;;;;30.38;15.18;;;;;;;5.63;100.00;101045.03;5035881;28;20119;-71
2023/10/18 06:03:01;;;;;;;30.17;15.15;;;;;;;5.52;100.00;101043.84;5023432;28;20028;-71
2023/10/18 06:05:35;;;;;;;29.48;16.73;;;;;;;5.70;100.00;101040.56;5036098;28;20059;-73
2023/10/18 06:08:01;;;;;;;32.00;16.75;;;;;;;5.71;100.00;101035.81;5037751;28;20124;-71
2023/10/18 06:10:26;;;;;;;33.28;14.43;;;;;;;5.65;100.00;101038.03;5037518;28;20135;-72
2023/10/18 06:13:10;;;;;;;30.63;14.30;;;;;;;5.72;100.00;101033.88;5034050;28;20037;-73
2023/10/18 06:15:44;;;;;;;31.58;15.52;;;;;;;5.79;100.00;101032.16;5031590;28;20507;-71
2023/10/18 06:18:16;;;;;;;26.52;14.40;;;;;;;5.73;100.00;101032.72;5019002;28;20036;-73
2023/10/18 06:20:44;;;;;;;30.60;15.60;;;;;;;5.71;100.00;101027.50;5039714;28;20037;-73
2023/10/18 06:23:28;;;;;;;36.17;15.10;;;;;;;5.76;100.00;101024.53;5040986;28;20029;-71
2023/10/18 06:25:57;;;;;;;29.73;15.00;;;;;;;5.69;100.00;101025.06;5035447;28;20033;-73
2023/10/18 06:28:24;;;;;;;27.23;14.75;;;;;;;5.70;100.00;101023.09;5036744;28;20175;-73
2023/10/18 06:30:51;;;;;;;24.25;11.95;;;;;;;7.84;100.00;101022.81;5033366;28;20032;-72
2023/10/18 06:33:19;;;;;;;33.67;17.33;;;;;;;6.43;100.00;101021.66;5041269;28;20421;-73
2023/10/18 06:35:51;;;;;;;30.08;15.40;;;;;;;5.92;100.00;101021.91;5040902;28;20032;-73
2023/10/18 06:38:24;;;;;;;31.42;15.38;;;;;;;5.90;100.00;101022.25;5040101;28;20115;-75
2023/10/18 06:40:53;;;;;;;33.72;16.45;;;;;;;5.86;100.00;101023.25;5041357;28;20114;-72
2023/10/18 06:43:20;;;;;;;40.10;15.80;;;;;;;5.90;100.00;101019.47;5036313;28;20890;-75
2023/10/18 06:45:48;;;;;;;22.58;13.20;;;;;;;5.73;100.00;101016.84;5039097;28;20108;-73
2023/10/18 06:48:14;;;;;;;26.00;15.15;;;;;;;5.80;100.00;101010.75;5039944;28;20025;-73
2023/10/18 06:50:40;;;;;;;31.55;15.88;;;;;;;5.75;100.00;101008.19;5044177;28;20031;-72
2023/10/18 06:53:11;;;;;;;33.78;14.73;;;;;;;5.78;100.00;101008.31;5025468;28;20410;-72
2023/10/18 06:55:55;;;;;;;26.90;14.43;;;;;;;5.81;100.00;101001.25;5043121;28;20052;-75
2023/10/18 07:00:53;;;;;;;28.90;14.10;;;;;;;5.79;100.00;101000.78;5047097;28;20151;-74
2023/10/18 07:03:25;;;;;;;31.20;14.63;;;;;;;5.63;100.00;101003.38;5044743;28;20041;-74
2023/10/18 07:05:52;;;;;;;26.10;13.38;;;;;;;5.74;100.00;100996.28;5049467;28;20020;-72
2023/10/18 07:08:22;;;;;;;30.13;16.85;;;;;;;5.56;100.00;101000.38;5042449;28;20518;-74
2023/10/18 07:10:55;;;;;;;31.90;15.38;;;;;;;5.48;100.00;100994.56;5047278;28;20072;-74
2023/10/18 07:13:46;;;;;;;25.57;13.73;;;;;;;5.74;100.00;100993.50;5047707;28;20502;-72
2023/10/18 07:16:14;;;;;;;31.23;15.80;;;;;;;5.76;100.00;100988.41;5024810;28;20055;-73
2023/10/18 07:18:42;;;;;;;31.67;14.90;;;;;;;5.66;100.00;100981.31;5047265;28;20107;-73
2023/10/18 07:21:09;;;;;;;26.25;13.90;;;;;;;5.58;100.00;100981.41;5044691;28;20036;-73
2023/10/18 07:23:39;;;;;;;30.58;15.77;;;;;;;5.49;100.00;100982.28;5029062;28;20076;-74
2023/10/18 07:26:13;;;;;;;28.85;16.05;;;;;;;5.47;100.00;100986.56;5045320;28;20033;-73
2023/10/18 07:28:40;;;;;;;26.50;14.50;;;;;;;5.35;100.00;100972.63;5045938;28;20025;-75
2023/10/18 07:31:09;;;;;;;26.52;14.82;;;;;;;5.61;100.00;100967.66;5046196;28;20013;-73
2023/10/18 07:33:40;;;;;;;29.10;16.77;;;;;;;5.71;100.00;100974.72;5044724;28;20043;-74
2023/10/18 07:36:11;;;;;;;31.52;14.43;;;;;;;5.75;100.00;100970.09;5044501;28;20063;-74
2023/10/18 07:38:39;;;;;;;25.75;14.80;;;;;;;5.97;100.00;100970.91;5043297;28;20112;-73
2023/10/18 07:41:07;;;;;;;29.38;14.07;;;;;;;5.94;100.00;100966.00;5036920;28;20450;-75
2023/10/18 07:43:34;;;;;;;25.45;14.88;;;;;;;5.90;100.00;100954.75;5042026;28;20017;-74
2023/10/18 07:46:04;;;;;;;29.58;14.43;;;;;;;5.85;100.00;100953.00;5040873;28;20128;-74
2023/10/18 07:48:30;;;;;;;25.60;14.18;;;;;;;5.89;100.00;100956.72;5028498;28;20043;-74
2023/10/18 07:50:55;;;;;;;26.52;14.02;;;;;;;5.99;100.00;100947.16;5042993;28;20033;-73
2023/10/18 07:53:21;;;;;;;26.25;14.93;;;;;;;5.94;100.00;100943.75;5035680;28;20391;-73
2023/10/18 07:56:00;;;;;;;23.75;13.32;;;;;;;5.98;100.00;100939.19;5045551;28;20120;-75
2023/10/18 07:58:25;;;;;;;29.88;14.73;;;;;;;5.97;100.00;100943.13;5048344;28;20833;-75
2023/10/18 08:01:07;;;;;;;29.00;14.00;;;;;;;6.01;100.00;100938.47;5039827;28;20037;-75
2023/10/18 08:03:34;;;;;;;27.45;14.07;;;;;;;6.07;100.00;100942.66;5040326;28;20473;-75
2023/10/18 08:06:05;;;;;;;27.35;14.50;;;;;;;6.03;100.00;100920.31;5042685;28;20033;-74
2023/10/18 08:08:31;;;;;;;23.45;12.45;;;;;;;6.17;100.00;100924.72;5045225;28;20571;-74
2023/10/18 08:10:59;;;;;;;23.13;13.57;;;;;;;6.24;100.00;100925.78;5030262;28;20029;-74
2023/10/18 08:13:31;;;;;;;21.63;12.65;;;;;;;6.18;100.00;100910.47;5042546;28;20036;-74
2023/10/18 08:16:01;;;;;;;21.37;12.27;;;;;;;6.11;100.00;100910.22;5041731;28;20379;-75
2023/10/18 08:18:45;;;;;;;26.40;13.25;;;;;;;6.24;100.00;100913.81;5044017;28;20274;-75
2023/10/18 08:21:25;;;;;;;23.90;13.48;;;;;;;6.24;100.00;100908.25;5023685;28;20033;-74
2023/10/18 08:23:52;;;;;;;19.95;10.43;;;;;;;6.30;100.00;100912.44;5028730;28;20037;-74
2023/10/18 08:26:20;;;;;;;19.38;12.50;;;;;;;6.45;100.00;100908.13;5049754;28;20024;-77
2023/10/18 08:28:46;;;;;;;21.35;12.05;;;;;;;6.40;100.00;100905.59;5046688;28;20479;-76
2023/10/18 08:33:44;;;;;;;22.00;12.55;;;;;;;6.43;100.00;100902.13;5042755;28;20048;-75
2023/10/18 08:36:13;;;;;;;21.52;12.07;;;;;;;6.48;100.00;100893.56;5044199;28;20460;-75
2023/10/18 08:38:41;;;;;;;25.98;13.27;;;;;;;6.51;100.00;100892.84;5049572;28;20470;-75
2023/10/18 08:41:16;;;;;;;19.25;10.75;;;;;;;6.71;100.00;100894.66;5039114;28;20029;-75
2023/10/18 08:44:08;;;;;;;22.80;12.63;;;;;;;6.71;100.00;100886.31;5046585;28;20029;-75
2023/10/18 08:46:39;;;;;;;23.67;12.20;;;;;;;6.74;100.00;100878.44;5024706;28;20501;-75
2023/10/18 08:49:06;;;;;;;21.67;11.65;;;;;;;6.74;100.00;100878.44;5045889;28;20497;-75
2023/10/18 08:51:35;;;;;;;20.88;11.40;;;;;;;6.72;100.00;100874.03;5047194;28;20474;-75
2023/10/18 08:54:02;;;;;;;20.15;11.30;;;;;;;6.80;100.00;100868.69;5040986;28;20116;-75
2023/10/18 08:56:33;;;;;;;22.25;11.10;;;;;;;6.95;100.00;100869.91;5029012;28;20477;-74
2023/10/18 08:58:59;;;;;;;18.17;10.88;;;;;;;6.96;100.00;100866.78;5044327;28;20033;-75
2023/10/18 09:01:25;;;;;;;19.92;10.73;;;;;;;7.03;100.00;100861.41;5032905;28;20021;-75
2023/10/18 09:03:51;;;;;;;19.27;9.93;;;;;;;7.12;100.00;100853.69;5044488;28;20032;-75
2023/10/18 09:06:30;;;;;;;23.05;12.05;;;;;;;7.11;100.00;100840.94;5044211;28;20045;-73
2023/10/18 09:09:07;;;;;;;18.13;12.48;;;;;;;7.24;100.00;100849.25;5022649;28;20117;-72
2023/10/18 09:11:36;;;;;;;21.25;11.13;;;;;;;7.35;100.00;100839.19;5044665;28;20029;-72
2023/10/18 09:14:07;;;;;;;18.95;10.63;;;;;;;7.38;100.00;100832.94;5047146;28;20075;-73
2023/10/18 09:16:35;;;;;;;20.02;11.40;;;;;;;7.42;100.00;100838.56;5029470;28;20391;-72
2023/10/18 09:19:00;;;;;;;20.60;11.65;;;;;;;7.43;100.00;100835.44;5039178;28;20060;-72
2023/10/18 09:21:32;;;;;;;24.27;11.45;;;;;;;7.47;100.00;100830.78;5037446;28;20025;-73
2023/10/18 09:24:00;;;;;;;20.13;10.85;;;;;;;7.55;100.00;100837.34;5035347;28;20036;-74
2023/10/18 09:26:26;;;;;;;18.20;10.18;;;;;;;7.64;100.00;100840.75;5045447;28;20033;-73
2023/10/18 09:28:54;;;;;;;22.63;10.82;;;;;;;7.72;100.00;100827.84;5044802;28;20035;-72
2023/10/18 09:31:20;;;;;;;18.35;10.48;;;;;;;7.76;100.00;100817.59;5043789;28;20021;-74
2023/10/18 09:34:07;;;;;;;17.40;9.70;;;;;;;7.78;100.00;100820.81;5047849;28;20502;-72
2023/10/18 09:36:38;;;;;;;17.23;9.30;;;;;;;7.82;100.00;100823.69;5046240;28;20036;-75
2023/10/18 09:39:09;;;;;;;17.50;10.95;;;;;;;7.84;100.00;100813.81;5045661;28;20059;-73
2023/10/18 09:41:37;;;;;;;20.25;10.25;;;;;;;7.92;100.00;100812.78;5043639;28;20048;-72
2023/10/18 09:44:03;;;;;;;15.88;10.80;;;;;;;7.93;100.00;100802.47;5047021;28;20033;-73
2023/10/18 09:46:29;;;;;;;15.95;9.35;;;;;;;7.96;100.00;100800.94;5047094;28;20033;-74
2023/10/18 09:48:57;;;;;;;18.80;10.35;;;;;;;8.04;100.00;100802.72;5043565;28;20024;-72
2023/10/18 09:51:24;;;;;;;18.73;11.07;;;;;;;8.10;100.00;100802.06;5028978;28;20035;-73
2023/10/18 09:53:51;;;;;;;17.02;9.00;;;;;;;8.13;100.00;100808.88;5043227;28;20490;-73
2023/10/18 09:56:24;;;;;;;16.65;9.23;;;;;;;8.21;100.00;100810.69;5043606;28;20025;-72
2023/10/18 09:58:51;;;;;;;19.63;9.70;;;;;;;8.26;100.00;100804.00;5046047;28;20037;-72
2023/10/18 10:01:27;;;;;;;17.30;9.60;;;;;;;8.35;100.00;100808.22;5043447;28;20037;-72
2023/10/18 10:03:53;;;;;;;15.00;8.70;;;;;;;8.40;100.00;100800.72;5027920;28;20061;-73
2023/10/18 10:06:23;;;;;;;17.60;10.43;;;;;;;8.45;100.00;100800.47;5042975;28;20430;-74
2023/10/18 10:09:12;;;;;;;17.70;9.88;;;;;;;8.54;100.00;100787.94;5040932;28;20037;-73
2023/10/18 10:11:43;;;;;;;19.23;9.10;;;;;;;8.58;100.00;100779.66;5044462;28;20688;-73
2023/10/18 10:14:10;;;;;;;14.02;9.23;;;;;;;8.57;100.00;100775.22;5046857;28;20182;-73
2023/10/18 10:16:39;;;;;;;15.35;8.75;;;;;;;8.61;100.00;100773.31;5033025;28;20029;-75
2023/10/18 10:19:11;;;;;;;15.30;8.30;;;;;;;8.69;100.00;100763.13;5030358;28;20033;-73
2023/10/18 10:21:37;;;;;;;13.13;8.70;;;;;;;8.74;100.00;100763.59;5046602;28;20500;-72
2023/10/18 10:24:29;;;;;;;14.60;8.40;;;;;;;8.75;100.00;100754.06;5037843;28;20025;-73
2023/10/18 10:26:51;;;;;;;15.95;8.38;;;;;;;8.81;100.00;100753.78;5051893;28;20254;-73
2023/10/18 10:32:05;;;;;;;14.75;8.63;;;;;;;9.00;100.00;100745.34;5049100;28;20029;-72
2023/10/18 10:34:34;;;;;;;16.55;9.15;;;;;;;9.04;100.00;100751.00;5047918;28;20029;-73
2023/10/18 10:37:19;;;;;;;13.88;8.65;;;;;;;9.01;100.00;100744.19;5049056;28;20033;-75
2023/10/18 10:39:52;;;;;;;24.48;10.45;;;;;;;9.09;100.00;100731.97;5045158;28;20041;-73
2023/10/18 10:42:41;;;;;;;14.40;8.73;;;;;;;9.12;100.00;100727.63;5046484;28;20043;-72
2023/10/18 10:47:44;;;;;;;15.43;8.32;;;;;;;9.42;100.00;100722.16;5051277;28;20037;-73
2023/10/18 10:50:30;;;;;;;16.20;8.82;;;;;;;9.45;100.00;100707.44;5050413;28;20029;-73
2023/10/18 10:52:58;;;;;;;15.13;8.32;;;;;;;9.54;100.00;100710.78;5047338;28;20021;-73
2023/10/18 10:55:24;;;;;;;11.45;7.18;;;;;;;9.64;100.00;100708.53;5052945;28;20398;-72
2023/10/18 10:57:50;;;;;;;12.88;7.63;;;;;;;9.76;100.00;100695.16;5051671;28;20032;-75
2023/10/18 11:00:36;;;;;;;14.63;7.35;;;;;;;9.86;100.00;100702.06;5045001;28;20029;-73
2023/10/18 11:03:24;;;;;;;17.30;8.98;;;;;;;9.90;100.00;100688.16;5042456;28;20599;-72
2023/10/18 11:05:53;;;;;;;14.75;8.90;;;;;;;9.94;100.00;100681.41;5048332;28;20032;-74
2023/10/18 11:08:19;;;;;;;16.20;8.98;;;;;;;9.96;100.00;100670.66;5046303;28;20116;-72
2023/10/18 11:10:44;;;;;;;14.63;8.63;;;;;;;10.07;100.00;100678.41;5029837;28;20190;-74
2023/10/18 11:13:13;;;;;;;17.60;9.23;;;;;;;9.97;100.00;100666.69;5048697;28;20104;-73
2023/10/18 11:15:42;;;;;;;12.07;7.30;;;;;;;9.98;100.00;100659.91;5049380;28;20386;-72
2023/10/18 11:18:19;;;;;;;10.30;7.07;;;;;;;10.00;100.00;100653.16;5048139;28;20071;-72
2023/10/18 11:23:33;;;;;;;15.20;8.35;;;;;;;10.20;100.00;100629.41;5045781;28;20975;-72
2023/10/18 11:25:59;;;;;;;13.82;8.55;;;;;;;10.30;100.00;100622.38;5041669;28;20031;-75
2023/10/18 11:28:29;;;;;;;13.32;7.60;;;;;;;10.42;100.00;100618.50;5045620;28;20541;-76
2023/10/18 11:30:56;;;;;;;12.68;7.53;;;;;;;10.51;100.00;100605.81;5049677;28;20494;-75
2023/10/18 11:34:21;;;;;;;9.80;6.22;;;;;;;10.52;100.00;100601.00;5045752;28;20025;-75
2023/10/18 11:36:27;;;;;;;16.45;7.75;;;;;;;10.70;100.00;100588.00;5029664;28;20048;-75
2023/10/18 11:41:56;;;;;;;14.05;8.30;;;;;;;10.77;98.50;100588.06;4987384;28;20034;-75
2023/10/18 11:44:32;;;;;;;14.70;8.00;;;;;;;10.69;97.92;100572.41;5017743;28;20040;-76
2023/10/18 11:47:18;;;;;;;14.10;7.22;;;;;;;10.71;99.04;100567.22;5028238;28;20032;-77
2023/10/18 11:49:44;;;;;;;11.77;6.60;;;;;;;10.74;96.92;100565.63;5047121;28;20025;-75
2023/10/18 11:52:16;;;;;;;12.80;6.40;;;;;;;10.90;98.52;100557.78;5046612;28;20090;-75
2023/10/18 11:54:43;;;;;;;12.35;7.68;;;;;;;10.78;100.00;100555.28;5027324;28;20056;-75
2023/10/18 11:57:24;;;;;;;9.52;7.20;;;;;;;10.68;99.31;100553.19;5025786;28;20056;-74
2023/10/18 11:59:52;;;;;;;15.38;7.43;;;;;;;10.71;98.02;100547.63;5043967;28;20086;-74
2023/10/18 12:02:17;;;;;;;14.68;7.47;;;;;;;10.80;97.54;100549.31;5029218;28;20045;-75